New Orleans, LA

1:37 AM CDT on May 29, 2015 (GMT -0500)
New Orleans Naval Air Station | | Change Station
CLOSE
Current Station
Airport
Location: New Orleans NAS,
Elevation: 3 ft
Nearby Weather Stations

Elev 3 ft 29.83 °N, 90.04 °W | Updated 42 minutes ago

Clear
Clear
76 °F
Feels Like 76 °F
N
6
Wind Variable Wind from SSE

Today
High -- | Low -- °F
--% Chance of Precip.
Yesterday
High -- | Low -- °F
Precip. -- in
6:00 AM 7:55 PM
Waxing Gibbous, 81% visible
Pressure 30.04 in
Visibility 10.0 miles
Clouds Clear
Dew Point 70 °F
Humidity 82%
Rainfall 0.00 in
Snow Depth Not available.
UV 0 out of 12
Pollen 3.70 out of 12
Air Quality Not available.
Flu Activity Sporadic
METAR KNBG 290555Z AUTO 16005KT 10SM CLR 24/21 A3004 RMK AO2 SLP171 T02440211 10283 20244 403170189 58012 $

More Conditions Fewer Conditions

Pressure 30.04 in
Visibility 10.0 miles
Clouds Clear
Dew Point 70 °F
Humidity 82%
Rainfall 0.00 in
Snow Depth Not available.
UV 0 out of 12
Pollen 3.70 out of 12
Air Quality Not available.
Flu Activity Sporadic
METAR KNBG 290555Z AUTO 16005KT 10SM CLR 24/21 A3004 RMK AO2 SLP171 T02440211 10283 20244 403170189 58012 $

More Conditions Fewer Conditions

10-Day Weather Forecast

Almanac

Astronomy

May. 29, 2015 Rise Set
Actual Time
Civil Twilight
Nautical Twilight
Astronomical Twilight
Moon
Length of Visible Light
Length of Day
Tomorrow will be .
, % of the Moon is Illuminated

Today's Extremes

State Highs State Lows

Community

WunderPhotos

Upload Photos

1,825,215 photos uploaded!

WunderBlogs® & News

Nearby

Air Quality

  Air Quality AQ Index Pollutant
Not available.

Snow Depth

Station Depth Elevation

Earthquake Activity

City Distance Mag. Time & Date
Minimum magnitude displayed is 2.5.

Coastal Water Temperatures

Place Temperature

Stations

Nearby Weather Stations

Station Location Temp. Windchill Dew Point Humidity Wind Precip. Elev Updated Type